Time;durP1;ratioP1;P1;durP2;ratioP2;P2;SDS_P1;SDS_P2;PMS_P1;PMS_P2;Temp;Humidity;BMP_temperature;BMP_pressure;BME280_temperature;BME280_humidity;BME280_pressure;Samples;Min_cycle;Max_cycle;Signal;HPM_P1;HPM_P2
2022/05/14 00:00:48;;;;;;;12.65;3.65;;;13.30;78.40;;;;;;5016774;28;20473;-79
2022/05/14 00:03:14;;;;;;;8.07;2.75;;;13.20;78.70;;;;;;5034357;28;20029;-79
2022/05/14 00:05:39;;;;;;;12.13;4.35;;;13.30;79.00;;;;;;5034329;28;20144;-79
2022/05/14 00:08:05;;;;;;;11.75;2.83;;;13.20;79.20;;;;;;5016754;28;20101;-79
2022/05/14 00:10:32;;;;;;;15.10;3.88;;;13.20;79.50;;;;;;5034227;28;20388;-79
2022/05/14 00:13:04;;;;;;;11.07;3.60;;;13.10;79.60;;;;;;5032991;28;20539;-78
2022/05/14 00:15:32;;;;;;;7.25;2.75;;;13.10;80.10;;;;;;5034198;28;20053;-78
2022/05/14 00:17:58;;;;;;;7.78;2.45;;;13.00;80.30;;;;;;5034045;28;20037;-79
2022/05/14 00:20:24;;;;;;;9.10;2.92;;;13.00;80.30;;;;;;5034241;28;20533;-79
2022/05/14 00:22:52;;;;;;;12.55;3.22;;;13.00;80.50;;;;;;5033962;28;20163;-79
2022/05/14 00:25:19;;;;;;;12.02;3.05;;;13.00;80.50;;;;;;5033946;28;20030;-80
2022/05/14 00:27:46;;;;;;;10.82;2.58;;;13.00;80.60;;;;;;5016492;28;20416;-79
2022/05/14 00:30:13;;;;;;;10.25;2.60;;;13.00;80.70;;;;;;5016048;28;20488;-79
2022/05/14 00:32:40;;;;;;;9.10;2.58;;;12.90;81.00;;;;;;5032521;28;20022;-80
2022/05/14 00:35:07;;;;;;;9.48;2.83;;;13.00;81.30;;;;;;5031747;28;20048;-79
2022/05/14 00:37:34;;;;;;;11.57;2.67;;;12.90;81.20;;;;;;5033842;28;20065;-79
2022/05/14 00:40:01;;;;;;;7.88;2.40;;;12.90;81.30;;;;;;5033683;28;20025;-79
2022/05/14 00:42:27;;;;;;;8.27;2.00;;;12.80;81.30;;;;;;5032337;28;20033;-79
2022/05/14 00:44:53;;;;;;;10.48;2.00;;;12.80;81.40;;;;;;5015996;28;20493;-79
2022/05/14 00:47:19;;;;;;;7.63;1.90;;;12.90;81.30;;;;;;5016215;28;20024;-82
2022/05/14 00:49:46;;;;;;;6.40;1.75;;;12.80;81.30;;;;;;5033624;28;20044;-79
2022/05/14 00:52:19;;;;;;;10.02;1.77;;;12.80;81.40;;;;;;5033857;28;20033;-79
2022/05/14 00:55:05;;;;;;;8.63;1.90;;;12.70;81.20;;;;;;5033540;28;20053;-79
2022/05/14 00:57:35;;;;;;;6.68;1.85;;;12.80;81.30;;;;;;5048685;28;20029;-79
2022/05/14 01:00:25;;;;;;;6.82;1.55;;;12.70;81.30;;;;;;5033567;28;20032;-78
2022/05/14 01:02:51;;;;;;;8.50;1.52;;;12.70;81.10;;;;;;5032822;28;20045;-79
2022/05/14 01:05:18;;;;;;;9.80;1.98;;;12.70;81.20;;;;;;5015823;28;20029;-79
2022/05/14 01:07:46;;;;;;;6.72;1.60;;;12.70;81.30;;;;;;5033397;28;20026;-79
2022/05/14 01:10:16;;;;;;;9.75;1.80;;;12.70;81.40;;;;;;5032010;28;20048;-79
2022/05/14 01:12:49;;;;;;;7.53;1.67;;;12.70;81.30;;;;;;5015561;28;20034;-80
2022/05/14 01:15:35;;;;;;;6.75;2.00;;;12.70;81.60;;;;;;5033262;28;20044;-79
2022/05/14 01:18:00;;;;;;;7.88;2.40;;;12.60;81.60;;;;;;5031834;28;20034;-79
2022/05/14 01:20:26;;;;;;;12.25;2.15;;;12.70;81.60;;;;;;5016032;28;20025;-79
2022/05/14 01:23:20;;;;;;;13.90;2.20;;;12.70;81.70;;;;;;5015547;28;20061;-79
2022/05/14 01:28:49;;;;;;;7.82;2.08;;;12.60;81.80;;;;;;5033429;28;20113;-78
2022/05/14 01:31:14;;;;;;;8.05;2.45;;;12.60;82.60;;;;;;5012666;28;20101;-79
2022/05/14 01:33:40;;;;;;;15.90;3.15;;;12.60;82.20;;;;;;5017943;28;20478;-79
2022/05/14 01:36:08;;;;;;;6.68;2.30;;;12.60;82.50;;;;;;5013268;28;20462;-80
2022/05/14 01:38:34;;;;;;;11.73;2.25;;;12.60;82.70;;;;;;5013019;28;20022;-82
2022/05/14 01:41:00;;;;;;;7.15;2.50;;;12.70;83.00;;;;;;4999048;28;20025;-79
2022/05/14 01:43:26;;;;;;;13.55;2.22;;;12.70;82.90;;;;;;5028137;28;20033;-79
2022/05/14 01:45:52;;;;;;;11.90;2.92;;;12.60;82.80;;;;;;5014502;28;20498;-79
2022/05/14 01:48:17;;;;;;;11.23;2.28;;;12.60;82.70;;;;;;4999101;28;20375;-80
2022/05/14 01:50:43;;;;;;;7.90;2.60;;;12.60;82.80;;;;;;4999689;28;20106;-80
2022/05/14 01:53:09;;;;;;;12.45;2.78;;;12.60;83.00;;;;;;4999402;28;20366;-80
2022/05/14 01:55:35;;;;;;;8.43;2.75;;;12.50;83.10;;;;;;5017713;28;20545;-81
2022/05/14 01:58:36;;;;;;;11.23;3.45;;;12.40;83.20;;;;;;5016918;28;20026;-79
2022/05/14 02:00:48;;;;;;;11.00;2.70;;;12.40;83.30;;;;;;5016782;28;20030;-78
2022/05/14 02:03:13;;;;;;;10.68;3.17;;;12.40;83.30;;;;;;4999503;28;20172;-79
2022/05/14 02:05:39;;;;;;;6.00;2.17;;;12.40;83.50;;;;;;4982897;28;20053;-79
2022/05/14 02:08:04;;;;;;;9.38;2.90;;;12.40;83.50;;;;;;4999353;28;20030;-79
2022/05/14 02:10:30;;;;;;;10.23;3.08;;;12.40;83.50;;;;;;4999219;28;20030;-79
2022/05/14 02:12:57;;;;;;;11.88;2.80;;;12.30;83.60;;;;;;4999156;28;20033;-79
2022/05/14 02:15:23;;;;;;;12.15;3.10;;;12.30;83.80;;;;;;4999471;28;20054;-78
2022/05/14 02:17:49;;;;;;;9.70;2.63;;;12.20;84.00;;;;;;4982995;28;20432;-78
2022/05/14 02:20:15;;;;;;;8.60;2.78;;;12.20;84.10;;;;;;4999003;28;20478;-79
2022/05/14 02:22:40;;;;;;;9.13;2.58;;;12.20;84.30;;;;;;5015159;28;20034;-79
2022/05/14 02:25:06;;;;;;;10.20;3.10;;;12.20;84.40;;;;;;4998981;28;20084;-78
2022/05/14 02:27:32;;;;;;;12.48;2.90;;;12.20;84.50;;;;;;4982047;28;20034;-78
2022/05/14 02:29:57;;;;;;;9.07;2.50;;;12.20;84.50;;;;;;5022932;28;20028;-80
2022/05/14 02:32:26;;;;;;;8.82;2.70;;;12.10;84.80;;;;;;5034742;28;20029;-79
2022/05/14 02:34:53;;;;;;;8.73;3.10;;;12.10;84.80;;;;;;5034342;28;20022;-79
2022/05/14 02:37:22;;;;;;;8.80;2.97;;;12.00;85.00;;;;;;5034981;28;20032;-79
2022/05/14 02:39:48;;;;;;;6.15;2.40;;;12.00;85.00;;;;;;5035953;28;20428;-79
2022/05/14 02:42:15;;;;;;;11.57;2.47;;;12.00;85.00;;;;;;5018102;28;20038;-79
2022/05/14 02:44:41;;;;;;;8.55;2.92;;;12.00;85.10;;;;;;5035719;28;20117;-79
2022/05/14 02:47:06;;;;;;;9.82;2.85;;;11.90;85.10;;;;;;5002007;28;20060;-78
2022/05/14 02:49:32;;;;;;;8.25;2.60;;;11.90;85.20;;;;;;5017990;28;20026;-79
2022/05/14 02:51:58;;;;;;;6.97;2.67;;;11.90;85.40;;;;;;5034501;28;20056;-78
2022/05/14 02:54:24;;;;;;;12.85;2.63;;;11.80;85.50;;;;;;5001802;28;20389;-78
2022/05/14 02:56:50;;;;;;;6.57;2.85;;;11.80;85.60;;;;;;5035829;28;20359;-78
2022/05/14 02:59:16;;;;;;;7.30;2.58;;;11.80;85.70;;;;;;5017023;28;20033;-78
2022/05/14 03:01:47;;;;;;;7.60;2.28;;;11.80;85.80;;;;;;5034216;28;20041;-78
2022/05/14 03:04:17;;;;;;;7.70;2.25;;;11.80;86.00;;;;;;5018625;28;20026;-74
2022/05/14 03:06:43;;;;;;;7.93;2.83;;;11.70;86.00;;;;;;5034126;28;20029;-75
2022/05/14 03:09:09;;;;;;;7.90;2.60;;;11.70;86.30;;;;;;5017797;28;20022;-74
2022/05/14 03:11:35;;;;;;;12.07;2.97;;;11.70;86.40;;;;;;5035397;28;20109;-74
2022/05/14 03:14:00;;;;;;;11.00;3.10;;;11.70;86.70;;;;;;5001322;28;20104;-74
2022/05/14 03:16:26;;;;;;;8.77;2.08;;;11.70;86.60;;;;;;5017549;28;20119;-75
2022/05/14 03:18:51;;;;;;;9.80;2.50;;;11.70;86.60;;;;;;5035230;28;20493;-78
2022/05/14 03:21:17;;;;;;;11.73;2.38;;;11.70;86.60;;;;;;5017411;28;20060;-79
2022/05/14 03:23:43;;;;;;;8.55;2.65;;;11.70;86.80;;;;;;5017504;28;20033;-79
2022/05/14 03:26:08;;;;;;;6.13;2.38;;;11.60;86.80;;;;;;5017664;28;20030;-78
2022/05/14 03:28:34;;;;;;;8.05;2.45;;;11.60;86.90;;;;;;5035305;28;20057;-80
2022/05/14 03:31:00;;;;;;;6.68;2.47;;;11.60;87.00;;;;;;5033727;28;20026;-78
2022/05/14 03:33:25;;;;;;;7.03;2.45;;;11.60;87.00;;;;;;5017173;28;20036;-78
2022/05/14 03:35:51;;;;;;;9.25;2.17;;;11.60;87.10;;;;;;5001310;28;20030;-79
2022/05/14 03:38:16;;;;;;;8.07;3.05;;;11.60;87.20;;;;;;5017138;28;20120;-78
2022/05/14 03:40:42;;;;;;;9.85;3.05;;;11.60;87.20;;;;;;5034815;28;20034;-79
2022/05/14 03:43:08;;;;;;;7.97;2.72;;;11.60;87.40;;;;;;5017043;28;20127;-79
2022/05/14 03:45:33;;;;;;;12.18;3.30;;;11.50;87.40;;;;;;5017001;28;20046;-78
2022/05/14 03:47:59;;;;;;;7.03;2.77;;;11.50;87.40;;;;;;5000727;28;20117;-79
2022/05/14 03:50:24;;;;;;;10.18;2.92;;;11.40;88.00;;;;;;5017077;28;20057;-79
2022/05/14 03:52:50;;;;;;;12.20;3.00;;;11.40;87.50;;;;;;5033273;28;20030;-78
2022/05/14 03:55:16;;;;;;;9.93;2.75;;;11.40;87.50;;;;;;5016783;28;20041;-78
2022/05/14 03:57:41;;;;;;;8.93;3.13;;;11.40;87.60;;;;;;5034525;28;20029;-78
2022/05/14 04:00:08;;;;;;;7.10;2.65;;;11.40;87.70;;;;;;5033322;28;20025;-78
2022/05/14 04:02:34;;;;;;;10.93;2.60;;;11.40;87.90;;;;;;5034331;28;20067;-79
2022/05/14 04:05:00;;;;;;;10.40;2.75;;;11.30;88.00;;;;;;5016827;28;20048;-78
2022/05/14 04:07:25;;;;;;;10.20;3.22;;;11.30;88.10;;;;;;5033096;28;20516;-79
2022/05/14 04:09:51;;;;;;;7.03;2.67;;;11.40;88.20;;;;;;5016404;28;20492;-78
2022/05/14 04:12:17;;;;;;;9.48;3.00;;;11.40;88.20;;;;;;5033789;28;20036;-79
2022/05/14 04:14:43;;;;;;;9.30;2.88;;;11.30;88.20;;;;;;5016458;28;20117;-78
2022/05/14 04:17:09;;;;;;;7.80;2.92;;;11.30;88.20;;;;;;5033947;28;20584;-78
2022/05/14 04:19:35;;;;;;;8.98;2.92;;;11.30;88.30;;;;;;5034042;28;20083;-79
2022/05/14 04:22:01;;;;;;;8.77;2.83;;;11.30;88.40;;;;;;5006142;28;20060;-78
2022/05/14 04:24:27;;;;;;;10.20;2.80;;;11.30;89.30;;;;;;5029460;28;20374;-78
2022/05/14 04:26:54;;;;;;;8.55;2.97;;;11.30;89.30;;;;;;5014415;28;20018;-78
2022/05/14 04:29:19;;;;;;;11.30;3.33;;;11.30;88.70;;;;;;5012934;28;20037;-79
2022/05/14 04:31:45;;;;;;;12.27;3.13;;;11.40;88.80;;;;;;5013066;28;20030;-79
2022/05/14 04:34:11;;;;;;;8.87;3.67;;;11.30;88.70;;;;;;5012876;28;20032;-79
2022/05/14 04:36:37;;;;;;;7.07;2.97;;;11.30;88.90;;;;;;5014082;28;20025;-80
2022/05/14 04:39:03;;;;;;;9.45;3.33;;;11.30;88.90;;;;;;5029221;28;20398;-79
2022/05/14 04:41:30;;;;;;;12.15;3.25;;;11.30;89.10;;;;;;5013889;28;20034;-79
2022/05/14 04:43:59;;;;;;;9.10;3.28;;;11.30;89.20;;;;;;5012624;28;20014;-79
2022/05/14 04:46:26;;;;;;;11.65;3.30;;;11.30;89.20;;;;;;5013892;28;20113;-79
2022/05/14 04:48:53;;;;;;;11.07;3.55;;;11.20;89.20;;;;;;5013034;28;20117;-79
2022/05/14 04:51:19;;;;;;;9.23;3.58;;;11.20;89.40;;;;;;5012696;28;20038;-75
2022/05/14 04:53:45;;;;;;;10.65;4.15;;;11.20;89.30;;;;;;5018041;28;20040;-74
2022/05/14 04:56:11;;;;;;;10.23;3.40;;;11.20;89.80;;;;;;4999090;28;20030;-74
2022/05/14 04:58:36;;;;;;;15.02;3.60;;;11.20;89.80;;;;;;5015828;28;20025;-75
2022/05/14 05:01:02;;;;;;;7.10;3.17;;;11.20;89.80;;;;;;4999551;28;20045;-75
2022/05/14 05:03:28;;;;;;;12.23;3.83;;;11.20;90.00;;;;;;5016015;28;20382;-75
2022/05/14 05:05:59;;;;;;;8.18;3.67;;;11.20;90.00;;;;;;5015909;28;20029;-74
2022/05/14 05:08:27;;;;;;;10.13;4.32;;;11.30;90.00;;;;;;5048442;28;20025;-75
2022/05/14 05:10:53;;;;;;;10.32;4.15;;;11.20;90.10;;;;;;5033272;28;20026;-74
2022/05/14 05:13:23;;;;;;;9.52;4.03;;;11.20;90.20;;;;;;4999194;28;20120;-75
2022/05/14 05:15:49;;;;;;;13.20;4.82;;;11.30;90.20;;;;;;5015544;28;20060;-76
2022/05/14 05:18:15;;;;;;;9.18;3.53;;;11.30;90.30;;;;;;5015828;28;20029;-75
2022/05/14 05:20:44;;;;;;;13.98;4.93;;;11.30;90.30;;;;;;5016040;28;20029;-75
2022/05/14 05:23:14;;;;;;;13.75;4.70;;;11.40;90.40;;;;;;5052495;28;20064;-75
2022/05/14 05:25:41;;;;;;;19.88;4.95;;;11.30;90.40;;;;;;5019644;28;20022;-75
2022/05/14 05:28:06;;;;;;;10.63;3.88;;;11.40;90.60;;;;;;5019302;28;20029;-75
2022/05/14 05:30:32;;;;;;;10.57;3.95;;;11.40;90.60;;;;;;5019414;28;20366;-75
2022/05/14 05:32:58;;;;;;;13.40;4.53;;;11.50;90.60;;;;;;5019953;28;20474;-75
2022/05/14 05:35:24;;;;;;;11.05;4.43;;;11.50;90.70;;;;;;5003643;28;20072;-76
2022/05/14 05:37:49;;;;;;;12.85;4.57;;;11.50;90.70;;;;;;5052642;28;20473;-75
2022/05/14 05:40:16;;;;;;;11.75;5.35;;;11.50;90.70;;;;;;5037049;28;20473;-75
2022/05/14 05:42:43;;;;;;;11.60;5.15;;;11.50;90.80;;;;;;5019227;28;20548;-76
2022/05/14 05:45:11;;;;;;;13.77;4.95;;;11.50;90.90;;;;;;5036914;28;20140;-75
2022/05/14 05:47:37;;;;;;;11.93;4.15;;;11.60;90.90;;;;;;5019039;28;20025;-75
2022/05/14 05:50:03;;;;;;;9.70;4.63;;;11.60;90.90;;;;;;4986589;28;20030;-75
2022/05/14 05:52:31;;;;;;;11.98;4.70;;;11.70;91.00;;;;;;5052076;28;20032;-76
2022/05/14 05:57:42;;;;;;;15.25;5.28;;;11.70;91.20;;;;;;5021915;28;20083;-76
2022/05/14 06:00:19;;;;;;;11.25;4.82;;;11.70;91.30;;;;;;5019019;28;20033;-75
2022/05/14 06:02:46;;;;;;;12.18;5.30;;;11.80;91.40;;;;;;5026043;28;20033;-75
2022/05/14 06:05:12;;;;;;;13.07;5.03;;;11.80;91.40;;;;;;5036634;28;20026;-77
2022/05/14 06:07:39;;;;;;;14.43;5.22;;;11.80;91.40;;;;;;5052066;28;20477;-76
2022/05/14 06:10:07;;;;;;;15.60;5.75;;;11.90;91.60;;;;;;5035286;28;20477;-76
2022/05/14 06:12:35;;;;;;;20.33;6.38;;;11.90;91.70;;;;;;5051761;28;20024;-75
2022/05/14 06:15:01;;;;;;;13.70;6.35;;;11.90;91.90;;;;;;5051799;28;20443;-75
2022/05/14 06:17:26;;;;;;;13.35;6.25;;;12.00;91.80;;;;;;5018937;28;20037;-75
2022/05/14 06:19:52;;;;;;;13.38;6.28;;;12.10;92.00;;;;;;5018649;28;20034;-75
2022/05/14 06:22:17;;;;;;;14.38;6.53;;;12.10;92.00;;;;;;5018411;28;20079;-75
2022/05/14 06:24:43;;;;;;;17.25;6.75;;;12.20;92.20;;;;;;5018338;28;20084;-76
2022/05/14 06:27:09;;;;;;;17.27;8.40;;;12.20;92.40;;;;;;5034895;28;20033;-76
2022/05/14 06:29:35;;;;;;;21.38;8.25;;;12.30;92.70;;;;;;5018634;28;20032;-76
2022/05/14 06:32:01;;;;;;;20.85;8.30;;;12.30;92.60;;;;;;5034661;28;20025;-75
2022/05/14 06:34:27;;;;;;;20.88;8.20;;;12.40;93.00;;;;;;5018317;28;20029;-75
2022/05/14 06:36:53;;;;;;;17.23;7.38;;;12.40;92.70;;;;;;5018287;28;20041;-76
2022/05/14 06:39:20;;;;;;;17.67;7.38;;;12.50;92.80;;;;;;5034567;28;20033;-75
2022/05/14 06:41:45;;;;;;;15.05;8.18;;;12.60;93.00;;;;;;5018361;28;20025;-75
2022/05/14 06:44:11;;;;;;;15.55;7.93;;;12.60;93.00;;;;;;5014812;28;20061;-76
2022/05/14 06:46:37;;;;;;;18.50;8.55;;;12.70;92.90;;;;;;5014956;28;20034;-75
2022/05/14 06:49:04;;;;;;;20.15;7.97;;;12.80;93.10;;;;;;5014777;28;20029;-75
2022/05/14 06:51:31;;;;;;;19.60;9.20;;;12.80;93.20;;;;;;5014899;28;20026;-75
2022/05/14 06:54:04;;;;;;;22.58;9.80;;;12.90;93.20;;;;;;5031150;28;20022;-81
2022/05/14 06:56:32;;;;;;;17.15;8.80;;;12.90;93.20;;;;;;5015651;28;20028;-81
2022/05/14 06:58:59;;;;;;;24.58;9.95;;;13.00;93.30;;;;;;5015674;28;20022;-83
2022/05/14 07:01:25;;;;;;;19.35;9.05;;;13.10;93.40;;;;;;5015714;28;20022;-80
2022/05/14 07:06:43;;;;;;;23.48;8.32;;;13.20;93.40;;;;;;5015974;28;20045;-81
2022/05/14 07:09:22;;;;;;;24.08;8.45;;;13.30;93.20;;;;;;5014380;28;20493;-79
2022/05/14 07:11:50;;;;;;;23.25;8.85;;;13.30;93.20;;;;;;5030833;28;20497;-81
2022/05/14 07:14:19;;;;;;;17.98;8.30;;;13.40;93.30;;;;;;5015685;28;20425;-84
2022/05/14 07:16:46;;;;;;;23.48;9.45;;;13.50;93.30;;;;;;5014731;28;20104;-81
2022/05/14 07:19:11;;;;;;;23.45;10.35;;;13.50;93.30;;;;;;5031122;28;20048;-81
2022/05/14 07:21:40;;;;;;;22.00;8.90;;;13.60;93.30;;;;;;5014200;28;20466;-80
2022/05/14 07:24:08;;;;;;;18.50;8.30;;;13.70;93.30;;;;;;5015592;28;20028;-81
2022/05/14 07:26:39;;;;;;;21.20;9.13;;;13.70;93.30;;;;;;5015392;28;20529;-80
2022/05/14 07:29:07;;;;;;;22.77;9.35;;;13.80;93.40;;;;;;5015798;28;20022;-82
2022/05/14 07:31:34;;;;;;;22.55;8.93;;;13.90;93.30;;;;;;5030520;28;20121;-83
2022/05/14 07:34:00;;;;;;;20.88;8.95;;;14.00;93.50;;;;;;5030449;28;20022;-83
2022/05/14 07:36:27;;;;;;;22.98;8.82;;;14.00;93.20;;;;;;5030380;28;20026;-81
2022/05/14 07:39:00;;;;;;;17.83;8.15;;;14.10;93.10;;;;;;5014028;28;20113;-81
2022/05/14 07:41:27;;;;;;;22.70;8.18;;;14.20;93.10;;;;;;5013531;28;20022;-82
2022/05/14 07:43:55;;;;;;;20.42;7.55;;;14.20;93.10;;;;;;5014332;28;20054;-80
2022/05/14 07:46:26;;;;;;;17.77;7.20;;;14.30;93.00;;;;;;5034969;28;20033;-80
2022/05/14 07:48:54;;;;;;;22.98;8.65;;;14.40;92.90;;;;;;5033575;28;20021;-80
2022/05/14 07:51:20;;;;;;;23.70;9.38;;;14.40;92.80;;;;;;5017194;28;20033;-81
2022/05/14 07:53:46;;;;;;;20.63;8.35;;;14.50;92.70;;;;;;5033327;28;20017;-81
2022/05/14 07:56:12;;;;;;;23.73;8.32;;;14.50;92.60;;;;;;5016873;28;20531;-80
2022/05/14 07:58:39;;;;;;;19.08;8.07;;;14.70;92.50;;;;;;5034364;28;20029;-76
2022/05/14 08:01:05;;;;;;;20.65;7.65;;;14.70;92.50;;;;;;5016866;28;20022;-76
2022/05/14 08:03:32;;;;;;;19.05;7.22;;;14.90;92.50;;;;;;5016809;28;20538;-77
2022/05/14 08:05:58;;;;;;;17.08;7.47;;;14.90;92.30;;;;;;5034522;28;20108;-76
2022/05/14 08:08:25;;;;;;;17.65;7.00;;;14.90;92.20;;;;;;5034604;28;20026;-76
2022/05/14 08:10:51;;;;;;;21.48;8.65;;;15.10;92.10;;;;;;5034381;28;20025;-76
2022/05/14 08:13:19;;;;;;;16.05;6.57;;;15.20;92.00;;;;;;5016655;28;20049;-76
2022/05/14 08:15:47;;;;;;;18.98;6.85;;;15.30;91.90;;;;;;5034313;28;20033;-77
2022/05/14 08:18:14;;;;;;;19.27;6.85;;;15.40;91.90;;;;;;5032787;28;20088;-76
2022/05/14 08:20:40;;;;;;;18.10;6.38;;;15.50;91.80;;;;;;5032838;28;20018;-76
2022/05/14 08:25:56;;;;;;;16.58;6.35;;;15.80;91.50;;;;;;5019515;28;20477;-75
2022/05/14 08:28:22;;;;;;;17.05;6.05;;;16.00;91.40;;;;;;5032777;28;20112;-75
2022/05/14 08:30:48;;;;;;;17.10;6.55;;;16.00;91.20;;;;;;5032747;28;20053;-75
2022/05/14 08:33:13;;;;;;;13.93;6.15;;;16.20;91.00;;;;;;5033616;28;20030;-76
2022/05/14 08:35:39;;;;;;;22.33;7.53;;;16.20;90.60;;;;;;5032754;28;20037;-76
2022/05/14 08:38:06;;;;;;;16.08;6.25;;;16.30;90.40;;;;;;5033714;28;20033;-76
2022/05/14 08:40:37;;;;;;;16.75;6.22;;;16.40;90.10;;;;;;5033636;28;20100;-76
2022/05/14 08:43:14;;;;;;;12.85;5.18;;;16.50;89.90;;;;;;5032442;28;21057;-76
2022/05/14 08:45:40;;;;;;;19.27;5.32;;;16.50;89.30;;;;;;5033466;28;20063;-76
2022/05/14 08:48:14;;;;;;;14.85;4.90;;;16.60;88.60;;;;;;5032677;28;20109;-76
2022/05/14 08:50:42;;;;;;;15.23;4.50;;;16.70;88.20;;;;;;5033309;28;20049;-77
2022/05/14 08:53:13;;;;;;;17.73;5.45;;;16.80;87.60;;;;;;5018230;28;20038;-80
2022/05/14 08:56:07;;;;;;;14.10;5.65;;;16.90;86.90;;;;;;5031510;28;20036;-81
2022/05/14 08:58:57;;;;;;;15.57;4.93;;;17.00;86.50;;;;;;5033131;28;20025;-79
2022/05/14 09:01:26;;;;;;;20.00;4.88;;;17.10;86.00;;;;;;5033211;28;20529;-80
2022/05/14 09:03:52;;;;;;;9.73;3.78;;;17.20;86.20;;;;;;5033250;28;20033;-79
2022/05/14 09:06:18;;;;;;;16.67;4.28;;;17.20;83.40;;;;;;5015725;28;20108;-81
2022/05/14 09:08:44;;;;;;;16.02;4.50;;;17.30;83.20;;;;;;5015659;28;20370;-79
2022/05/14 09:11:21;;;;;;;16.33;4.60;;;17.40;82.00;;;;;;5033761;28;20029;-82
2022/05/14 09:13:53;;;;;;;11.50;3.63;;;17.50;81.70;;;;;;5033277;28;20120;-83
2022/05/14 09:16:23;;;;;;;11.43;3.60;;;17.60;81.30;;;;;;5033229;28;20025;-81
2022/05/14 09:18:49;;;;;;;15.40;3.97;;;17.70;80.90;;;;;;5031885;28;20435;-81
2022/05/14 09:21:23;;;;;;;11.23;3.53;;;17.70;80.30;;;;;;5026664;28;20034;-81
2022/05/14 09:23:57;;;;;;;11.65;3.45;;;17.80;78.90;;;;;;5019762;28;20033;-78
2022/05/14 09:26:32;;;;;;;16.20;3.67;;;17.80;78.60;;;;;;5011878;28;20030;-81
2022/05/14 09:29:11;;;;;;;14.25;3.85;;;17.90;78.40;;;;;;4995798;28;20064;-82
2022/05/14 09:31:48;;;;;;;15.50;4.50;;;18.00;78.10;;;;;;5013425;28;20030;-80
2022/05/14 09:34:17;;;;;;;11.18;3.90;;;18.10;77.60;;;;;;5016184;28;20116;-81
2022/05/14 09:36:48;;;;;;;12.88;4.28;;;18.20;77.40;;;;;;5015170;28;20473;-81
2022/05/14 09:39:17;;;;;;;13.85;3.47;;;18.40;76.40;;;;;;5033252;28;20025;-78
2022/05/14 09:41:56;;;;;;;11.68;3.40;;;18.50;76.00;;;;;;5031430;28;20478;-76
2022/05/14 09:44:27;;;;;;;12.75;2.97;;;18.50;75.00;;;;;;5019034;28;20041;-79
2022/05/14 09:47:08;;;;;;;9.57;2.90;;;18.60;74.20;;;;;;5033068;28;20482;-80
2022/05/14 09:49:34;;;;;;;10.25;3.25;;;18.70;73.30;;;;;;5032729;28;20079;-79
2022/05/14 09:52:04;;;;;;;12.70;2.90;;;18.80;72.50;;;;;;5031434;28;20485;-84
2022/05/14 09:54:48;;;;;;;17.02;3.15;;;18.80;71.60;;;;;;5031523;28;20032;-78
2022/05/14 09:57:26;;;;;;;13.85;2.88;;;18.90;71.10;;;;;;5015146;28;20048;-79
2022/05/14 10:00:27;;;;;;;13.65;2.60;;;19.00;70.10;;;;;;5032440;28;20025;-81
2022/05/14 10:03:11;;;;;;;11.93;2.63;;;19.10;68.90;;;;;;4952660;29;20043;-78
2022/05/14 10:06:18;;;;;;;16.80;4.47;;;19.20;68.70;;;;;;5023639;28;20045;-78
2022/05/14 10:08:59;;;;;;;13.52;3.58;;;19.30;68.50;;;;;;5035917;28;20057;-77
2022/05/14 10:11:44;;;;;;;15.68;3.88;;;19.40;68.40;;;;;;5036677;28;20021;-77
2022/05/14 10:14:20;;;;;;;12.45;3.65;;;19.50;68.40;;;;;;5035464;28;20029;-77
2022/05/14 10:16:56;;;;;;;12.18;3.00;;;19.60;68.40;;;;;;5035022;28;20018;-78
2022/05/14 10:19:31;;;;;;;11.43;3.20;;;19.80;68.30;;;;;;5034982;28;20048;-78
2022/05/14 10:22:13;;;;;;;14.80;3.30;;;20.00;68.00;;;;;;5034764;28;20065;-78
2022/05/14 10:27:49;;;;;;;15.75;3.38;;;20.50;65.20;;;;;;5016287;28;20406;-79
2022/05/14 10:30:24;;;;;;;12.52;2.92;;;20.70;64.80;;;;;;4998837;28;20022;-78
2022/05/14 10:32:56;;;;;;;12.85;3.65;;;21.10;62.90;;;;;;5015035;28;20041;-80
2022/05/14 10:35:34;;;;;;;14.40;3.25;;;21.40;62.20;;;;;;5016270;28;20036;-79
2022/05/14 10:38:19;;;;;;;9.80;2.58;;;21.90;61.80;;;;;;4998464;28;20053;-79
2022/05/14 10:40:48;;;;;;;12.88;2.90;;;22.40;61.30;;;;;;4998738;28;20429;-78
2022/05/14 10:43:17;;;;;;;9.48;2.10;;;22.80;61.00;;;;;;5015971;28;20033;-79
2022/05/14 10:45:45;;;;;;;13.30;2.80;;;23.10;59.60;;;;;;5017538;28;20061;-78
2022/05/14 10:48:26;;;;;;;13.10;3.13;;;23.30;59.00;;;;;;5016153;28;20061;-77
2022/05/14 10:50:52;;;;;;;10.00;2.20;;;23.50;58.50;;;;;;5015499;28;20051;-78
2022/05/14 10:53:19;;;;;;;14.55;2.22;;;23.70;58.20;;;;;;5015765;28;20029;-77
2022/05/14 10:56:03;;;;;;;10.68;2.95;;;23.90;57.60;;;;;;5035640;28;20470;-78
2022/05/14 10:58:53;;;;;;;11.20;1.88;;;23.90;56.60;;;;;;5017458;28;20458;-79
2022/05/14 11:01:32;;;;;;;10.88;2.58;;;24.20;55.90;;;;;;5034227;28;20448;-77
2022/05/14 11:04:15;;;;;;;10.48;2.58;;;24.40;54.20;;;;;;5034311;28;20025;-81
2022/05/14 11:07:14;;;;;;;12.68;3.08;;;25.10;53.30;;;;;;5034372;28;20082;-77
2022/05/14 11:09:48;;;;;;;11.55;2.80;;;25.90;52.90;;;;;;5017538;28;20120;-79
2022/05/14 11:12:19;;;;;;;10.63;2.28;;;26.60;52.90;;;;;;5034192;28;20029;-78
2022/05/14 11:14:47;;;;;;;14.60;2.20;;;27.20;51.60;;;;;;5033791;28;20048;-79
2022/05/14 11:17:33;;;;;;;10.18;2.67;;;27.40;51.10;;;;;;5034734;28;20362;-80
2022/05/14 11:20:02;;;;;;;9.82;1.90;;;27.40;49.30;;;;;;5032827;28;20504;-81
2022/05/14 11:22:34;;;;;;;8.05;1.98;;;27.50;49.40;;;;;;5035142;28;20029;-78
2022/05/14 11:25:22;;;;;;;10.65;2.45;;;27.50;48.90;;;;;;5035133;28;20064;-78
2022/05/14 11:28:06;;;;;;;8.05;2.13;;;27.60;48.10;;;;;;5035385;28;20045;-79
2022/05/14 11:30:37;;;;;;;7.50;2.17;;;27.60;47.40;;;;;;5050665;28;20029;-79
2022/05/14 11:33:17;;;;;;;7.88;1.90;;;27.70;47.40;;;;;;5034985;28;20023;-79
2022/05/14 11:35:45;;;;;;;10.98;2.38;;;27.70;46.90;;;;;;5034842;28;20548;-77
2022/05/14 11:38:32;;;;;;;6.43;1.77;;;27.80;46.60;;;;;;5035152;28;20116;-78
2022/05/14 11:41:08;;;;;;;11.07;2.05;;;27.80;45.80;;;;;;5034676;28;20381;-78
2022/05/14 11:43:43;;;;;;;7.38;1.88;;;27.90;45.70;;;;;;5034572;28;20029;-78
2022/05/14 11:46:09;;;;;;;9.30;2.20;;;27.90;45.50;;;;;;5033471;28;20040;-80
2022/05/14 11:49:10;;;;;;;9.52;2.28;;;28.10;45.40;;;;;;5034722;28;20029;-80
2022/05/14 11:51:58;;;;;;;10.05;1.80;;;28.20;44.80;;;;;;5050252;28;20026;-82
2022/05/14 11:54:53;;;;;;;10.73;1.83;;;28.30;44.70;;;;;;5034634;28;20505;-79
2022/05/14 11:57:29;;;;;;;7.60;2.40;;;28.40;44.50;;;;;;5033366;28;20021;-77
2022/05/14 11:59:58;;;;;;;11.40;2.35;;;28.50;44.50;;;;;;5034414;28;20060;-79
2022/05/14 12:02:33;;;;;;;8.02;2.15;;;28.60;44.10;;;;;;5033126;28;20032;-80
2022/05/14 12:04:59;;;;;;;8.40;2.63;;;28.50;43.80;;;;;;5033071;28;20025;-77
2022/05/14 12:07:50;;;;;;;9.55;2.33;;;28.50;43.80;;;;;;5017012;28;20026;-78
2022/05/14 12:10:38;;;;;;;8.02;2.15;;;28.60;43.30;;;;;;5033027;28;20022;-78
2022/05/14 12:13:12;;;;;;;10.52;2.22;;;28.60;43.30;;;;;;5043425;28;20029;-78
2022/05/14 12:15:52;;;;;;;10.27;2.22;;;28.70;43.10;;;;;;5029687;28;20056;-78
2022/05/14 12:18:18;;;;;;;7.45;2.00;;;28.80;43.20;;;;;;5015847;28;20048;-79
2022/05/14 12:20:57;;;;;;;9.88;2.97;;;29.00;43.40;;;;;;5032702;28;20049;-78
2022/05/14 12:23:39;;;;;;;9.82;2.45;;;29.10;43.00;;;;;;5033898;28;20061;-80
2022/05/14 12:26:23;;;;;;;8.30;2.17;;;29.20;42.80;;;;;;5034537;28;20036;-82
2022/05/14 12:28:50;;;;;;;8.90;2.08;;;29.10;42.50;;;;;;5033976;28;20032;-81
2022/05/14 12:34:15;;;;;;;8.00;1.92;;;29.00;42.10;;;;;;5034527;28;20024;-80
2022/05/14 12:36:51;;;;;;;8.25;2.03;;;29.20;42.20;;;;;;5032594;28;20025;-79
2022/05/14 12:39:23;;;;;;;7.65;1.83;;;29.40;42.00;;;;;;5032555;28;20025;-80
2022/05/14 12:41:54;;;;;;;8.63;2.05;;;29.50;41.70;;;;;;5033651;28;20112;-82
2022/05/14 12:44:25;;;;;;;8.32;2.03;;;29.50;41.50;;;;;;5032496;28;20045;-81
2022/05/14 12:46:54;;;;;;;6.82;1.92;;;29.60;41.50;;;;;;5034261;28;20039;-82
2022/05/14 12:49:24;;;;;;;13.38;2.08;;;29.50;41.30;;;;;;5033502;28;20076;-79
2022/05/14 12:52:17;;;;;;;10.43;2.55;;;29.60;41.30;;;;;;5032647;28;20075;-80
2022/05/14 12:54:55;;;;;;;9.48;1.83;;;29.70;41.00;;;;;;5033170;28;20037;-78
2022/05/14 12:57:22;;;;;;;9.35;1.90;;;29.80;40.90;;;;;;5030836;28;20498;-80
2022/05/14 12:59:48;;;;;;;8.73;1.70;;;29.80;40.90;;;;;;5033655;28;20022;-78
2022/05/14 13:02:23;;;;;;;9.15;1.65;;;29.70;40.30;;;;;;5015210;28;20482;-78
2022/05/14 13:04:59;;;;;;;11.48;2.70;;;29.70;40.40;;;;;;5033597;28;20033;-79
2022/05/14 13:07:26;;;;;;;8.82;1.80;;;29.80;40.40;;;;;;5048576;28;20048;-80
2022/05/14 13:09:53;;;;;;;9.60;1.77;;;30.00;40.30;;;;;;5015612;28;20021;-78
2022/05/14 13:12:22;;;;;;;8.73;2.83;;;30.20;40.10;;;;;;5033307;28;20065;-83